KEMT

San Gabriel Valley Airport

El Monte, California, USA
METAR KEMT 180345Z 00000KT 10SM CLR 13/M02 A3001
Observed Flight Rules
Dec-18 @ 03:45 UTC (5 hours ago) Visual Flight Rules
Wind Visibility Clouds
Calm 10 miles
  • Clear skies
Temperatures Readings
Current 13°C / 55°F
Dewpoint -2°C / 28°F
Humidity 36%
Altimeter 30.01" Hg
Pressure 1016 hPa
Elevation 90
METAR KEMT 180345Z 00000KT 10SM CLR 13/M02 A3001
Observed Flight Rules
Dec-18 @ 03:45 UTC
(5 hours ago)
VFR
Wind Visibility
Calm 10 miles
Clouds
  • Clear skies
Temperature Dewpoint
13°C / 55°F -2°C / 28°F
Humidity Altimeter Pressure
36% 30.01" Hg 1016 hPa